Hovedside
METAR-TAF:

METAR-TAF

Lufthavner :

Mar del Plata, Argentina

breddegrad: 37-56S, lengdegrad: 057-35W, høyde over havet: 18 m

Gjeldene værobservasjon

Denne rapporten ble laget for 1 time og 0 minutter siden, klokken 20:00 UTC
Vind 18 kt fra Vest-sørvest
Temperatur 9°C
Luftfuktighet 61%
Trykk 1010 hPa
Sikt 10 km eller mer
Brutte skyer i en høyde av 3500 ft

METAR: SAZM 232000Z 24018KT 9999 BKN035 09/02 Q1010

Tid: 18:00 (21:00 UTC)

Varsel

Denne rapporten ble laget for 4 timer og 0 minutter siden, klokken 17:00 UTC
Varsel gyldig fra 23. klokken 18 UTC til 24. klokken 18 UTC
Vind 15 kt fra Vest-sørvest
Sikt 10 km eller mer
Spredte skyer i en høyde av 2500 ft
Blir
fra 23. klokken 23 UTC til 24. klokken 01 UTC
Vind 10 kt fra Sør-sørvest
Sikt: 8000 m
Brutte skyer i en høyde av 1200 ft
Overskyet i en høyde av 3000 ft
lett regn,

TAF: SAZM 231700Z 2318/2418 25015KT 9999 SCT025 TX13/2318Z TN05/2411Z BECMG 2323/2401 20010KT 8000 -RA BKN012 OVC030

Værobservasjoner og værvarsel for over 4000 flyplasser (METAR- og TAF-rapporter).

Tilgjengelige stasjoner er representert av de røde og gule prikkene på kartet.

Hold musepekeren over prikken for å se navnet på stasjonen.

Klikk så for å se værobservasjoner og -varsler.

For å forandre kartet kan du klikke på den grønne knappen med svart kryss for å zoome inn, på den grønne knappen med strek for å zoome ut, eller på de grønne pilene for å se tilstøtende kart.


METAR-TAF: